Time;durP1;ratioP1;P1;durP2;ratioP2;P2;SDS_P1;SDS_P2;PMS_P1;PMS_P2;Temp;Humidity;BMP_temperature;BMP_pressure;BME280_temperature;BME280_humidity;BME280_pressure;Samples;Min_cycle;Max_cycle;Signal;HPM_P1;HPM_P2
2021/11/01 00:01:44;;;;;;;28.77;15.05;;;;;;;2.52;100.00;98596.10;4309182;82;28450;-83
2021/11/01 00:07:46;;;;;;;28.57;14.60;;;;;;;2.47;100.00;98597.16;4313171;81;28572;-80
2021/11/01 00:13:47;;;;;;;27.70;14.68;;;;;;;2.34;100.00;98588.06;4236041;83;28473;-80
2021/11/01 00:19:48;;;;;;;30.37;16.40;;;;;;;2.46;100.00;98591.05;4256129;83;28485;-81
2021/11/01 00:25:51;;;;;;;32.93;16.82;;;;;;;2.41;100.00;98586.80;4279949;81;28509;-81
2021/11/01 00:31:52;;;;;;;31.77;16.12;;;;;;;2.18;100.00;98579.00;4235084;83;28497;-80
2021/11/01 00:37:54;;;;;;;32.63;16.73;;;;;;;2.27;100.00;98571.25;4237010;83;28525;-81
2021/11/01 00:43:56;;;;;;;30.35;16.27;;;;;;;2.14;100.00;98567.14;4243593;82;28466;-81
2021/11/01 00:49:57;;;;;;;29.57;15.38;;;;;;;2.03;100.00;98567.95;4250215;82;28504;-81
2021/11/01 00:56:00;;;;;;;30.17;15.60;;;;;;;2.37;100.00;98562.47;4283350;82;28445;-81
2021/11/01 01:02:01;;;;;;;29.02;15.55;;;;;;;2.28;100.00;98560.14;4271760;82;28548;-79
2021/11/01 01:08:03;;;;;;;33.30;16.85;;;;;;;2.16;100.00;98552.69;4261483;82;28469;-80
2021/11/01 01:14:04;;;;;;;35.03;16.85;;;;;;;2.04;100.00;98549.70;4283023;83;28503;-81
2021/11/01 01:20:09;;;;;;;27.67;14.80;;;;;;;1.78;100.00;98543.11;4272794;83;28455;-80
2021/11/01 01:26:14;;;;;;;28.80;16.05;;;;;;;1.84;100.00;98536.23;4267936;83;28514;-79
2021/11/01 01:32:13;;;;;;;27.02;15.43;;;;;;;1.81;100.00;98529.47;4259113;83;28575;-82
2021/11/01 01:38:16;;;;;;;31.52;16.37;;;;;;;1.62;100.00;98521.62;4152585;85;28528;-81
2021/11/01 01:44:17;;;;;;;34.53;18.15;;;;;;;1.60;100.00;98516.98;4295460;83;28510;-81
2021/11/01 01:50:19;;;;;;;29.80;16.27;;;;;;;1.53;100.00;98508.16;4296000;83;28452;-81
2021/11/01 01:56:22;;;;;;;29.05;15.65;;;;;;;1.38;100.00;98499.70;4296283;83;28463;-81
2021/11/01 02:02:25;;;;;;;34.45;16.05;;;;;;;1.46;100.00;98496.64;4276420;83;28518;-82
2021/11/01 02:08:27;;;;;;;32.25;16.48;;;;;;;1.49;100.00;98490.48;4293528;83;28608;-81
2021/11/01 02:14:42;;;;;;;32.70;16.67;;;;;;;1.38;100.00;98482.48;4310112;82;28534;-81
2021/11/01 02:21:05;;;;;;;29.95;15.93;;;;;;;1.48;100.00;98489.33;4313214;82;28494;-81
2021/11/01 02:27:11;;;;;;;41.53;17.00;;;;;;;1.63;100.00;98480.86;4287544;82;28523;-80
2021/11/01 02:33:15;;;;;;;30.60;15.93;;;;;;;1.50;100.00;98474.06;4252754;82;28487;-80
2021/11/01 02:39:17;;;;;;;34.98;16.42;;;;;;;1.55;100.00;98472.17;4279961;82;28471;-81
2021/11/01 02:45:18;;;;;;;35.83;16.85;;;;;;;1.56;100.00;98473.81;4317923;81;28471;-81
2021/11/01 02:51:22;;;;;;;34.10;16.52;;;;;;;1.39;100.00;98462.13;4283158;81;28500;-80
2021/11/01 02:57:24;;;;;;;30.68;16.90;;;;;;;1.24;100.00;98470.09;4311022;81;28554;-81
2021/11/01 03:03:25;;;;;;;32.00;15.05;;;;;;;1.25;100.00;98459.82;4301564;81;28572;-81
2021/11/01 03:09:31;;;;;;;31.17;15.83;;;;;;;1.15;100.00;98451.34;4283879;82;28671;-81
2021/11/01 03:15:33;;;;;;;35.17;17.48;;;;;;;1.13;100.00;98443.56;4305416;82;28474;-80
2021/11/01 03:21:39;;;;;;;34.00;16.35;;;;;;;0.99;100.00;98449.22;4259082;82;28501;-82
2021/11/01 03:27:43;;;;;;;29.50;15.30;;;;;;;0.94;100.00;98440.99;4184251;84;28480;-81
2021/11/01 03:33:44;;;;;;;34.27;15.68;;;;;;;0.98;100.00;98430.34;4238260;82;28470;-81
2021/11/01 03:39:47;;;;;;;28.05;15.20;;;;;;;0.83;100.00;98431.67;4314514;82;28469;-81
2021/11/01 03:45:49;;;;;;;31.42;16.20;;;;;;;0.91;100.00;98433.43;4301395;83;28470;-81
2021/11/01 03:52:04;;;;;;;34.13;17.02;;;;;;;1.18;100.00;98419.19;4315204;82;28466;-81
2021/11/01 03:57:55;;;;;;;31.95;16.93;;;;;;;1.03;100.00;98424.02;4309435;82;28566;-81
2021/11/01 04:03:58;;;;;;;31.75;15.98;;;;;;;1.14;100.00;98420.57;4305617;82;28512;-81
2021/11/01 04:10:00;;;;;;;33.20;16.32;;;;;;;0.98;100.00;98409.17;4281478;82;28564;-82
2021/11/01 04:16:10;;;;;;;32.17;15.23;;;;;;;0.87;100.00;98411.80;4290995;82;28984;-81
2021/11/01 04:22:06;;;;;;;30.50;16.15;;;;;;;0.81;100.00;98413.84;4288424;82;28471;-82
2021/11/01 04:28:07;;;;;;;30.30;15.68;;;;;;;0.88;100.00;98400.20;4317619;82;28511;-81
2021/11/01 04:40:24;;;;;;;31.60;15.85;;;;;;;0.88;100.00;98396.72;4290878;82;28513;-81
2021/11/01 04:58:56;;;;;;;32.60;15.98;;;;;;;0.94;100.00;98374.33;4297855;82;28434;-80
2021/11/01 05:04:59;;;;;;;33.23;16.05;;;;;;;0.73;100.00;98368.94;4304227;82;28471;-80
2021/11/01 05:11:05;;;;;;;31.80;15.88;;;;;;;0.69;100.00;98359.25;4293163;82;28478;-80
2021/11/01 05:17:20;;;;;;;31.15;15.80;;;;;;;0.72;100.00;98360.20;4234936;83;28475;-81
2021/11/01 05:23:36;;;;;;;36.28;15.65;;;;;;;0.60;100.00;98359.03;4280723;83;28572;-81
2021/11/01 05:29:19;;;;;;;28.95;15.32;;;;;;;0.77;100.00;98360.97;4242234;83;28478;-81
2021/11/01 05:35:21;;;;;;;34.88;14.93;;;;;;;0.79;100.00;98357.63;4165932;84;28470;-81
2021/11/01 05:41:23;;;;;;;28.52;14.60;;;;;;;0.67;100.00;98351.97;4121756;85;28478;-82
2021/11/01 05:47:25;;;;;;;28.57;14.63;;;;;;;1.19;100.00;98337.41;4160399;85;28525;-81
2021/11/01 05:53:32;;;;;;;29.72;14.95;;;;;;;1.29;100.00;98360.95;4126053;85;28502;-81
2021/11/01 05:59:46;;;;;;;26.82;13.32;;;;;;;1.37;100.00;98359.52;4121159;85;28466;-82
2021/11/01 06:18:09;;;;;;;31.75;13.58;;;;;;;1.90;100.00;98364.99;4212747;84;28558;-82
2021/11/01 06:24:28;;;;;;;26.48;13.28;;;;;;;1.95;100.00;98359.92;4202664;84;28468;-83
2021/11/01 06:43:45;;;;;;;31.90;14.80;;;;;;;2.25;100.00;98362.39;4208194;82;28524;-83
2021/11/01 06:55:59;;;;;;;29.92;14.78;;;;;;;2.69;100.00;98356.92;4232479;82;28507;-84
2021/11/01 08:17:26;;;;;;;23.65;12.07;;;;;;;4.38;100.00;98336.21;4184935;84;28493;-87
2021/11/01 08:47:42;;;;;;;23.15;11.20;;;;;;;6.96;100.00;98311.47;4171840;84;28512;-82
2021/11/01 09:06:40;;;;;;;21.90;12.05;;;;;;;7.65;100.00;98291.56;4160064;84;28530;-83
2021/11/01 09:18:56;;;;;;;17.50;10.53;;;;;;;8.18;100.00;98273.80;4250136;82;28500;-83
2021/11/01 09:25:17;;;;;;;19.27;10.67;;;;;;;8.53;100.00;98274.83;4235199;82;28495;-84
2021/11/01 09:43:52;;;;;;;16.40;8.48;;;;;;;9.15;100.00;98259.92;4288380;81;28546;-89
2021/11/01 09:49:53;;;;;;;13.03;6.72;;;;;;;9.41;100.00;98257.67;4301836;82;28464;-85
2021/11/01 10:02:07;;;;;;;13.45;6.80;;;;;;;9.94;100.00;98248.56;4307920;81;28607;-89
2021/11/01 10:08:18;;;;;;;15.83;7.37;;;;;;;10.17;100.00;98238.14;4310706;81;28549;-87
2021/11/01 10:14:19;;;;;;;12.70;7.05;;;;;;;10.40;100.00;98237.62;4305257;81;28486;-86
2021/11/01 10:20:21;;;;;;;11.15;6.65;;;;;;;10.59;100.00;98224.70;4307781;81;28536;-83
2021/11/01 10:26:29;;;;;;;11.35;6.62;;;;;;;10.83;98.93;98221.73;4306342;81;28506;-81
2021/11/01 10:32:49;;;;;;;13.03;6.40;;;;;;;10.96;100.00;98215.97;4288209;81;28566;-79
2021/11/01 10:39:03;;;;;;;10.50;6.03;;;;;;;11.10;98.45;98207.48;4321140;81;28441;-79
2021/11/01 11:10:56;;;;;;;8.45;5.33;;;;;;;12.00;87.24;98173.13;4317962;81;28586;-78
2021/11/01 11:17:09;;;;;;;9.20;5.47;;;;;;;12.30;79.37;98157.41;4316508;81;28511;-77
2021/11/01 11:29:56;;;;;;;8.33;5.15;;;;;;;12.62;80.95;98148.33;4249759;82;35748;-80
2021/11/01 11:42:28;;;;;;;6.50;4.28;;;;;;;12.94;70.21;98138.38;4310834;81;28430;-79
2021/11/01 11:48:24;;;;;;;7.83;4.33;;;;;;;13.00;71.23;98125.69;4304987;81;28533;-79
2021/11/01 11:54:43;;;;;;;7.35;4.42;;;;;;;13.13;70.06;98118.95;4311198;81;28532;-79
2021/11/01 12:00:45;;;;;;;9.08;4.55;;;;;;;13.34;69.27;98121.91;4292856;81;28593;-79
2021/11/01 12:07:09;;;;;;;6.50;4.17;;;;;;;13.47;67.18;98113.00;4307388;81;28490;-81
2021/11/01 12:13:39;;;;;;;7.05;4.55;;;;;;;13.58;66.90;98109.75;4266923;81;28512;-78
2021/11/01 12:19:24;;;;;;;8.05;4.33;;;;;;;13.72;65.60;98100.54;4285821;82;28606;-77
2021/11/01 12:25:32;;;;;;;8.40;4.70;;;;;;;13.80;65.92;98101.33;4279832;82;28480;-79
2021/11/01 12:31:35;;;;;;;7.78;4.90;;;;;;;13.93;63.05;98093.16;4294187;81;28583;-76
2021/11/01 12:37:48;;;;;;;6.42;4.40;;;;;;;14.06;63.75;98090.41;4280007;81;28599;-76
2021/11/01 13:02:42;;;;;;;6.95;4.37;;;;;;;14.24;61.97;98074.66;4049201;87;28480;-76
2021/11/01 13:08:48;;;;;;;7.92;4.22;;;;;;;14.19;63.50;98074.13;4287798;81;28455;-77
2021/11/01 13:21:00;;;;;;;6.80;4.00;;;;;;;14.26;62.38;98061.09;4309629;81;28462;-78
2021/11/01 13:27:13;;;;;;;6.40;3.95;;;;;;;14.29;61.39;98058.38;4299910;81;28549;-79
2021/11/01 13:39:29;;;;;;;5.53;3.47;;;;;;;14.28;60.57;98048.66;4299171;82;28533;-78
2021/11/01 13:45:32;;;;;;;7.53;4.10;;;;;;;14.25;62.54;98042.47;4280172;82;28497;-76
2021/11/01 13:51:34;;;;;;;7.00;3.80;;;;;;;14.15;62.46;98033.33;4277191;82;28591;-76
2021/11/01 13:58:14;;;;;;;6.33;4.05;;;;;;;14.06;62.04;98019.61;4299639;82;28499;-78
2021/11/01 14:29:24;;;;;;;6.53;4.10;;;;;;;13.72;65.50;98023.55;4174546;84;28553;-77
2021/11/01 14:35:45;;;;;;;4.72;3.60;;;;;;;13.58;66.37;98018.73;4278942;82;28477;-79
2021/11/01 15:19:17;;;;;;;7.20;3.65;;;;;;;12.24;78.50;98013.74;4228913;81;28561;-78
2021/11/01 16:21:59;;;;;;;8.30;4.22;;;;;;;10.45;96.89;98054.97;4288791;81;28490;-78
2021/11/01 16:28:03;;;;;;;8.38;4.12;;;;;;;10.30;98.95;98053.73;4295122;81;28482;-80
2021/11/01 16:40:13;;;;;;;9.50;4.87;;;;;;;10.07;100.00;98047.33;4327941;81;28502;-80
2021/11/01 16:46:16;;;;;;;7.77;4.93;;;;;;;9.96;100.00;98047.73;4296158;81;28873;-89
2021/11/01 16:52:20;;;;;;;10.05;5.80;;;;;;;9.47;100.00;98046.08;4294875;82;35078;-89
2021/11/01 16:58:29;;;;;;;7.97;4.65;;;;;;;9.52;100.00;98036.47;4178314;83;28483;-89
2021/11/01 17:04:31;;;;;;;8.90;4.60;;;;;;;9.56;100.00;98034.92;4292640;81;28454;-89
2021/11/01 18:46:25;;;;;;;11.22;5.78;;;;;;;7.19;100.00;98026.58;4263303;81;28528;-85
2021/11/01 18:52:16;;;;;;;10.35;6.42;;;;;;;7.33;100.00;98027.95;4279050;82;28459;-79
2021/11/01 18:58:25;;;;;;;14.05;7.90;;;;;;;7.23;100.00;98039.22;4257985;82;28523;-83
2021/11/01 19:04:34;;;;;;;12.82;7.67;;;;;;;7.17;100.00;98027.31;4260839;81;28501;-87
2021/11/01 19:10:58;;;;;;;14.87;7.80;;;;;;;7.02;100.00;98027.27;4262108;81;28481;-84
2021/11/01 20:13:42;;;;;;;13.43;7.28;;;;;;;6.32;100.00;98048.83;4311445;81;28465;-88
2021/11/01 21:29:51;;;;;;;25.23;13.35;;;;;;;7.57;100.00;98026.56;4258705;82;28484;-82
2021/11/01 21:35:54;;;;;;;18.25;10.03;;;;;;;7.78;100.00;98014.41;4216244;83;28472;-81
2021/11/01 21:41:56;;;;;;;27.82;14.50;;;;;;;7.73;100.00;98016.17;4197957;83;28515;-83
2021/11/01 21:47:57;;;;;;;29.40;14.25;;;;;;;7.87;100.00;98011.37;4238823;82;28471;-83
2021/11/01 21:54:28;;;;;;;23.12;12.47;;;;;;;7.97;100.00;98004.86;4199454;83;28509;-82
2021/11/01 22:00:43;;;;;;;27.98;13.05;;;;;;;8.08;100.00;97994.63;4199150;83;28478;-82
2021/11/01 22:19:42;;;;;;;25.85;13.40;;;;;;;8.30;100.00;97976.52;4206183;83;28460;-81
2021/11/01 22:25:35;;;;;;;28.90;14.25;;;;;;;8.24;100.00;97960.07;4253546;82;28481;-80
2021/11/01 22:56:51;;;;;;;35.38;18.27;;;;;;;8.12;100.00;97945.41;4289022;81;28434;-83
2021/11/01 23:02:59;;;;;;;33.80;17.40;;;;;;;8.14;100.00;97935.80;4255083;82;28526;-83
2021/11/01 23:34:17;;;;;;;39.30;19.57;;;;;;;7.84;100.00;97914.14;4203309;83;28539;-81
2021/11/01 23:40:21;;;;;;;31.95;17.20;;;;;;;7.66;100.00;97912.78;4262184;81;28512;-81
2021/11/01 23:46:22;;;;;;;32.30;17.25;;;;;;;7.78;100.00;97905.22;4309287;81;28463;-81
2021/11/01 23:52:24;;;;;;;39.18;18.77;;;;;;;7.82;100.00;97898.35;4296518;81;28459;-81
2021/11/01 23:58:25;;;;;;;34.00;18.25;;;;;;;7.88;100.00;97894.69;4292564;81;28476;-80
